createdAt,value
2023-04-10T00:00:30.915Z,32.32
2023-04-10T00:03:00.298Z,32.46
2023-04-10T00:05:28.432Z,31.93
2023-04-10T00:07:56.461Z,32.04
2023-04-10T00:10:26.472Z,32.44
2023-04-10T00:12:56.022Z,32.08
2023-04-10T00:15:24.210Z,32.24
2023-04-10T00:17:55.426Z,32.49
2023-04-10T00:20:23.783Z,32.56
2023-04-10T00:22:51.721Z,32.58
2023-04-10T00:25:19.704Z,32.64
2023-04-10T00:27:48.872Z,32.12
2023-04-10T00:30:19.139Z,32.66
2023-04-10T00:32:47.071Z,32.80
2023-04-10T00:35:15.588Z,32.40
2023-04-10T00:37:43.421Z,32.86
2023-04-10T00:40:12.350Z,32.42
2023-04-10T00:42:40.874Z,32.95
2023-04-10T00:45:12.122Z,32.85
2023-04-10T00:47:40.901Z,32.77
2023-04-10T00:50:09.984Z,32.67
2023-04-10T00:52:37.955Z,32.88
2023-04-10T00:55:07.240Z,32.92
2023-04-10T00:57:35.288Z,32.80
2023-04-10T01:00:06.756Z,32.50
2023-04-10T01:02:36.522Z,33.08
2023-04-10T01:05:07.326Z,32.76
2023-04-10T01:07:51.119Z,32.76
2023-04-10T01:10:26.567Z,32.55
2023-04-10T01:13:05.927Z,32.95
2023-04-10T01:15:43.497Z,32.57
2023-04-10T01:18:20.487Z,32.46
2023-04-10T01:20:48.375Z,32.81
2023-04-10T01:23:52.370Z,32.69
2023-04-10T01:26:40.797Z,33.00
2023-04-10T01:29:15.769Z,33.17
2023-04-10T01:31:50.464Z,32.62
2023-04-10T01:34:22.013Z,33.19
2023-04-10T01:36:54.607Z,33.20
2023-04-10T01:39:23.640Z,32.73
2023-04-10T01:41:53.718Z,33.21
2023-04-10T01:44:31.160Z,33.18
2023-04-10T01:47:00.845Z,33.17
2023-04-10T01:49:30.010Z,33.33
2023-04-10T01:52:06.941Z,33.01
2023-04-10T01:54:36.278Z,33.38
2023-04-10T01:57:06.406Z,32.98
2023-04-10T01:59:46.257Z,33.24
2023-04-10T02:02:14.783Z,33.24
2023-04-10T02:04:42.648Z,33.47
2023-04-10T02:07:15.115Z,33.22
2023-04-10T02:09:49.201Z,33.66
2023-04-10T02:12:19.570Z,33.70
2023-04-10T02:14:51.423Z,33.79
2023-04-10T02:17:24.442Z,33.70
2023-04-10T02:19:55.338Z,33.42
2023-04-10T02:22:25.612Z,33.24
2023-04-10T02:24:53.771Z,33.53
2023-04-10T02:27:29.720Z,33.78
2023-04-10T02:29:59.149Z,33.29
2023-04-10T02:32:27.853Z,33.56
2023-04-10T02:34:56.420Z,33.29
2023-04-10T02:37:24.305Z,33.36
2023-04-10T02:39:54.587Z,33.60
2023-04-10T02:42:24.625Z,33.86
2023-04-10T02:44:54.702Z,33.66
2023-04-10T02:47:24.964Z,33.43
2023-04-10T02:49:52.958Z,33.92
2023-04-10T02:52:21.461Z,33.69
2023-04-10T02:54:49.333Z,34.10
2023-04-10T02:57:17.504Z,34.01
2023-04-10T02:59:45.603Z,33.99
2023-04-10T03:02:13.789Z,34.01
2023-04-10T03:04:43.396Z,34.07
2023-04-10T03:07:11.458Z,34.06
2023-04-10T03:09:40.276Z,33.73
2023-04-10T03:12:08.090Z,33.56
2023-04-10T03:14:35.872Z,33.47
2023-04-10T03:17:03.855Z,34.10
2023-04-10T03:19:32.712Z,34.13
2023-04-10T03:22:02.259Z,34.20
2023-04-10T03:24:30.366Z,33.75
2023-04-10T03:26:58.633Z,34.14
2023-04-10T03:29:26.490Z,34.16
2023-04-10T03:31:57.459Z,34.16
2023-04-10T03:34:26.702Z,34.27
2023-04-10T03:36:54.481Z,34.37
2023-04-10T03:39:24.670Z,34.44
2023-04-10T03:41:52.522Z,34.28
2023-04-10T03:44:20.388Z,34.50
2023-04-10T03:46:48.305Z,34.03
2023-04-10T03:49:16.650Z,33.96
2023-04-10T03:51:44.625Z,33.96
2023-04-10T03:54:12.486Z,34.35
2023-04-10T03:56:41.668Z,34.46
2023-04-10T03:59:09.524Z,34.09
2023-04-10T04:01:41.103Z,34.31
2023-04-10T04:04:11.977Z,34.03
2023-04-10T04:07:10.293Z,34.39
2023-04-10T04:09:51.674Z,34.70
2023-04-10T04:12:27.405Z,34.34
2023-04-10T04:15:10.780Z,34.49
2023-04-10T04:17:47.936Z,34.67
2023-04-10T04:20:39.128Z,34.15
2023-04-10T04:23:17.705Z,34.77
2023-04-10T04:26:04.059Z,34.23
2023-04-10T04:28:56.139Z,34.33
2023-04-10T04:31:41.796Z,34.58
2023-04-10T04:34:27.726Z,34.27
2023-04-10T04:37:27.625Z,34.27
2023-04-10T04:40:15.829Z,34.65
2023-04-10T04:43:02.073Z,34.72
2023-04-10T04:45:49.874Z,34.61
2023-04-10T04:48:32.296Z,34.23
2023-04-10T04:51:26.149Z,34.62
2023-04-10T04:54:16.728Z,34.21
2023-04-10T04:57:16.966Z,34.53
2023-04-10T05:00:07.673Z,34.61
2023-04-10T05:02:55.847Z,34.68
2023-04-10T05:05:29.613Z,34.35
2023-04-10T05:08:35.927Z,34.67
2023-04-10T05:11:24.121Z,34.58
2023-04-10T05:14:15.412Z,34.27
2023-04-10T05:17:01.051Z,34.29
2023-04-10T05:19:50.012Z,34.72
2023-04-10T05:22:40.533Z,34.69
2023-04-10T05:25:17.232Z,34.87
2023-04-10T05:28:02.386Z,34.46
2023-04-10T05:30:57.995Z,34.36
2023-04-10T05:33:46.020Z,34.70
2023-04-10T05:36:28.409Z,34.34
2023-04-10T05:39:10.081Z,34.74
2023-04-10T05:42:00.917Z,34.63
2023-04-10T05:44:49.029Z,34.80
2023-04-10T05:47:38.865Z,34.76
2023-04-10T05:50:22.990Z,34.59
2023-04-10T05:53:00.401Z,34.88
2023-04-10T05:56:02.032Z,34.65
2023-04-10T05:58:46.690Z,34.80
2023-04-10T06:01:41.156Z,34.62
2023-04-10T06:04:09.422Z,35.05
2023-04-10T06:06:38.462Z,34.42
2023-04-10T06:09:07.998Z,34.72
2023-04-10T06:11:36.122Z,35.08
2023-04-10T06:14:04.152Z,34.60
2023-04-10T06:16:39.132Z,34.63
2023-04-10T06:19:07.576Z,34.80
2023-04-10T06:21:37.080Z,34.35
2023-04-10T06:24:05.514Z,34.14
2023-04-10T06:26:34.837Z,34.61
2023-04-10T06:29:04.377Z,34.50
2023-04-10T06:31:34.665Z,34.51
2023-04-10T06:34:04.237Z,34.36
2023-04-10T06:36:32.986Z,34.45
2023-04-10T06:39:04.794Z,34.00
2023-04-10T06:41:34.072Z,34.22
2023-04-10T06:44:14.446Z,34.45
2023-04-10T06:46:42.372Z,33.81
2023-04-10T06:49:10.186Z,33.82
2023-04-10T06:51:38.120Z,33.91
2023-04-10T06:54:05.961Z,33.97
2023-04-10T06:56:35.172Z,33.39
2023-04-10T06:59:03.260Z,34.03
2023-04-10T07:01:31.243Z,34.03
2023-04-10T07:03:59.089Z,33.96
2023-04-10T07:06:27.577Z,33.55
2023-04-10T07:08:55.679Z,33.42
2023-04-10T07:11:23.786Z,33.77
2023-04-10T07:13:53.905Z,33.38
2023-04-10T07:16:21.878Z,33.28
2023-04-10T07:18:49.756Z,33.46
2023-04-10T07:21:17.681Z,33.10
2023-04-10T07:23:45.485Z,33.15
2023-04-10T07:26:13.421Z,33.42
2023-04-10T07:28:41.302Z,32.56
2023-04-10T07:31:11.035Z,32.72
2023-04-10T07:33:39.067Z,32.27
2023-04-10T07:36:07.812Z,31.94
2023-04-10T07:38:35.730Z,31.99
2023-04-10T07:41:03.609Z,31.75
2023-04-10T07:43:31.625Z,31.61
2023-04-10T07:45:59.538Z,31.93
2023-04-10T07:48:28.818Z,31.72
2023-04-10T07:50:56.906Z,31.66
2023-04-10T07:53:25.499Z,31.98
2023-04-10T07:55:54.071Z,31.47
2023-04-10T07:58:22.748Z,31.52
2023-04-10T08:00:51.514Z,31.84
2023-04-10T08:03:19.970Z,31.82
2023-04-10T08:05:49.408Z,31.82
2023-04-10T08:08:17.659Z,31.66
2023-04-10T08:10:45.503Z,31.84
2023-04-10T08:13:13.365Z,31.65
2023-04-10T08:15:41.426Z,31.66
2023-04-10T08:18:09.242Z,31.77
2023-04-10T08:20:37.311Z,31.28
2023-04-10T08:25:40.964Z,31.16
2023-04-10T08:28:08.793Z,30.91
2023-04-10T08:30:36.658Z,31.42
2023-04-10T08:33:04.693Z,31.24
2023-04-10T08:35:32.641Z,31.24
2023-04-10T08:38:12.740Z,30.94
2023-04-10T08:40:44.720Z,30.68
2023-04-10T08:43:12.744Z,30.98
2023-04-10T08:45:41.868Z,30.51
2023-04-10T08:48:13.003Z,30.70
2023-04-10T08:50:43.325Z,30.42
2023-04-10T08:53:13.262Z,30.48
2023-04-10T08:55:43.162Z,30.24
2023-04-10T08:58:13.672Z,30.15
2023-04-10T09:00:41.608Z,30.62
2023-04-10T09:03:11.802Z,30.67
2023-04-10T09:05:40.006Z,30.47
2023-04-10T09:08:09.243Z,30.17
2023-04-10T09:10:37.033Z,30.78
2023-04-10T09:13:06.343Z,30.40
2023-04-10T09:15:57.157Z,30.04
2023-04-10T09:18:42.358Z,29.98
2023-04-10T09:21:11.226Z,30.58
2023-04-10T09:23:39.340Z,30.56
2023-04-10T09:26:24.211Z,30.00
2023-04-10T09:29:01.266Z,30.18
2023-04-10T09:31:34.313Z,30.45
2023-04-10T09:34:09.783Z,29.85
2023-04-10T09:36:38.120Z,30.49
2023-04-10T09:39:06.377Z,30.20
2023-04-10T09:41:34.519Z,30.18
2023-04-10T09:44:11.830Z,28.85
2023-04-10T09:46:39.840Z,29.87
2023-04-10T09:49:07.812Z,29.50
2023-04-10T09:51:37.242Z,29.24
2023-04-10T09:54:05.469Z,29.33
2023-04-10T09:56:39.179Z,28.18
2023-04-10T09:59:09.493Z,28.64
2023-04-10T10:01:41.163Z,28.90
2023-04-10T10:04:09.268Z,28.55
2023-04-10T10:06:40.200Z,28.69
2023-04-10T10:09:08.483Z,28.59
2023-04-10T10:11:37.207Z,28.32
2023-04-10T10:14:14.104Z,28.03
2023-04-10T10:16:46.811Z,28.46
2023-04-10T10:19:20.560Z,28.37
2023-04-10T10:21:48.735Z,29.00
2023-04-10T10:24:17.936Z,28.17
2023-04-10T10:26:48.368Z,28.52
2023-04-10T10:29:18.549Z,28.00
2023-04-10T10:31:48.033Z,28.08
2023-04-10T10:34:17.308Z,27.71
2023-04-10T10:36:45.120Z,27.38
2023-04-10T10:39:29.743Z,26.45
2023-04-10T10:42:06.724Z,26.94
2023-04-10T10:44:44.008Z,27.02
2023-04-10T10:47:16.979Z,26.97
2023-04-10T10:49:57.734Z,26.32
2023-04-10T10:52:44.993Z,26.63
2023-04-10T10:55:32.596Z,26.07
2023-04-10T10:58:02.291Z,26.95
2023-04-10T11:01:03.437Z,26.12
2023-04-10T11:03:32.773Z,27.26
2023-04-10T11:06:03.011Z,26.71
2023-04-10T11:08:46.064Z,26.54
2023-04-10T11:11:17.175Z,26.27
2023-04-10T11:14:18.071Z,26.05
2023-04-10T11:16:48.567Z,26.90
2023-04-10T11:19:23.632Z,26.58
2023-04-10T11:22:05.957Z,26.36
2023-04-10T11:24:57.420Z,26.17
2023-04-10T11:27:49.600Z,25.88
2023-04-10T11:30:28.072Z,26.21
2023-04-10T11:32:56.538Z,26.38
2023-04-10T11:35:27.143Z,26.05
2023-04-10T11:38:09.773Z,25.56
2023-04-10T11:40:54.519Z,25.45
2023-04-10T11:43:22.493Z,26.17
2023-04-10T11:45:50.361Z,26.08
2023-04-10T11:48:18.338Z,26.20
2023-04-10T11:50:47.636Z,25.94
2023-04-10T11:53:22.514Z,25.68
2023-04-10T11:55:50.717Z,26.10
2023-04-10T11:58:26.113Z,25.78
2023-04-10T12:00:58.227Z,25.87
2023-04-10T12:03:34.279Z,25.74
2023-04-10T12:06:03.838Z,26.21
2023-04-10T12:08:32.482Z,25.99
2023-04-10T12:11:01.239Z,26.00
2023-04-10T12:13:30.560Z,26.15
2023-04-10T12:16:01.459Z,25.91
2023-04-10T12:18:30.742Z,26.25
2023-04-10T12:20:59.650Z,25.82
2023-04-10T12:23:30.038Z,25.89
2023-04-10T12:26:12.578Z,25.66
2023-04-10T12:28:42.321Z,26.40
2023-04-10T12:31:10.339Z,26.19
2023-04-10T12:33:38.553Z,26.27
2023-04-10T12:36:06.849Z,26.13
2023-04-10T12:38:41.098Z,25.49
2023-04-10T12:41:11.169Z,25.81
2023-04-10T12:43:40.818Z,26.18
2023-04-10T12:46:10.695Z,25.73
2023-04-10T12:48:38.569Z,26.12
2023-04-10T12:51:06.736Z,25.75
2023-04-10T12:53:45.853Z,25.97
2023-04-10T12:56:14.510Z,25.69
2023-04-10T12:58:42.680Z,25.66
2023-04-10T13:01:11.166Z,25.43
2023-04-10T13:03:39.508Z,25.48
2023-04-10T13:06:08.229Z,25.36
2023-04-10T13:08:36.408Z,25.84
2023-04-10T13:11:07.151Z,25.67
2023-04-10T13:13:35.516Z,25.62
2023-04-10T13:16:03.393Z,25.41
2023-04-10T13:18:31.225Z,25.43
2023-04-10T13:20:59.041Z,25.28
2023-04-10T13:23:26.971Z,25.23
2023-04-10T13:25:56.758Z,25.21
2023-04-10T13:28:26.088Z,25.18
2023-04-10T13:30:53.950Z,25.09
2023-04-10T13:33:22.299Z,25.11
2023-04-10T13:35:50.399Z,25.10
2023-04-10T13:38:20.046Z,24.77
2023-04-10T13:40:49.380Z,24.81
2023-04-10T13:43:17.150Z,24.81
2023-04-10T13:45:46.363Z,24.88
2023-04-10T13:48:17.639Z,25.21
2023-04-10T13:50:46.792Z,24.90
2023-04-10T13:53:14.648Z,24.59
2023-04-10T13:55:43.823Z,25.02
2023-04-10T13:58:13.305Z,24.60
2023-04-10T14:00:41.352Z,24.79
2023-04-10T14:03:12.275Z,24.31
2023-04-10T14:05:40.526Z,24.75
2023-04-10T14:08:11.615Z,24.28
2023-04-10T14:10:40.441Z,24.85
2023-04-10T14:13:09.082Z,24.35
2023-04-10T14:15:36.994Z,24.19
2023-04-10T14:18:04.851Z,24.43
2023-04-10T14:20:34.307Z,24.42
2023-04-10T14:23:02.087Z,24.45
2023-04-10T14:25:30.000Z,23.96
2023-04-10T14:27:57.807Z,24.00
2023-04-10T14:30:28.973Z,24.00
2023-04-10T14:32:56.823Z,24.29
2023-04-10T14:35:25.265Z,24.25
2023-04-10T14:37:55.573Z,24.09
2023-04-10T14:40:23.395Z,24.11
2023-04-10T14:42:51.657Z,23.79
2023-04-10T14:45:19.816Z,24.01
2023-04-10T14:47:48.198Z,24.13
2023-04-10T14:50:17.339Z,24.26
2023-04-10T14:52:45.093Z,23.89
2023-04-10T14:55:14.275Z,23.84
2023-04-10T14:57:42.047Z,23.98
2023-04-10T15:00:11.228Z,23.79
2023-04-10T15:02:39.555Z,23.64
2023-04-10T15:05:08.195Z,23.50
2023-04-10T15:07:36.028Z,23.62
2023-04-10T15:10:03.962Z,23.56
2023-04-10T15:12:33.574Z,23.65
2023-04-10T15:15:01.456Z,23.53
2023-04-10T15:17:29.858Z,23.87
2023-04-10T15:19:57.742Z,23.95
2023-04-10T15:22:26.847Z,23.90
2023-04-10T15:24:54.607Z,23.96
2023-04-10T15:27:22.554Z,24.07
2023-04-10T15:29:51.855Z,23.88
2023-04-10T15:32:19.733Z,24.39
2023-04-10T15:34:47.571Z,24.45
2023-04-10T15:37:15.587Z,24.12
2023-04-10T15:39:43.417Z,24.47
2023-04-10T15:42:11.269Z,24.35
2023-04-10T15:44:39.662Z,24.28
2023-04-10T15:47:08.904Z,24.59
2023-04-10T15:49:38.673Z,24.52
2023-04-10T15:52:07.286Z,24.38
2023-04-10T15:54:35.757Z,24.53
2023-04-10T15:57:05.009Z,24.52
2023-04-10T15:59:34.354Z,24.41
2023-04-10T16:02:02.353Z,24.47
2023-04-10T16:04:31.917Z,24.97
2023-04-10T16:06:59.833Z,24.86
2023-04-10T16:09:27.670Z,24.67
2023-04-10T16:11:56.126Z,25.04
2023-04-10T16:14:24.131Z,24.81
2023-04-10T16:16:52.120Z,25.34
2023-04-10T16:19:20.020Z,25.20
2023-04-10T16:21:50.164Z,25.63
2023-04-10T16:24:17.999Z,25.86
2023-04-10T16:26:45.775Z,26.42
2023-04-10T16:29:13.633Z,26.97
2023-04-10T16:31:41.486Z,27.39
2023-04-10T16:34:09.357Z,27.93
2023-04-10T16:36:37.222Z,28.04
2023-04-10T16:39:07.394Z,28.33
2023-04-10T16:41:36.407Z,28.62
2023-04-10T16:44:04.401Z,28.91
2023-04-10T16:46:33.197Z,29.63
2023-04-10T16:49:01.692Z,29.19
2023-04-10T16:51:29.700Z,29.65
2023-04-10T16:53:57.547Z,29.24
2023-04-10T16:56:27.023Z,29.84
2023-04-10T16:58:55.124Z,29.73
2023-04-10T17:01:26.169Z,30.38
2023-04-10T17:03:54.895Z,30.28
2023-04-10T17:06:23.147Z,30.43
2023-04-10T17:08:51.069Z,30.55
2023-04-10T17:11:18.906Z,30.65
2023-04-10T17:13:48.126Z,30.92
2023-04-10T17:16:16.063Z,30.58
2023-04-10T17:18:44.148Z,31.19
2023-04-10T17:21:12.514Z,30.98
2023-04-10T17:23:40.658Z,31.36
2023-04-10T17:26:13.914Z,32.31
2023-04-10T17:28:44.412Z,31.55
2023-04-10T17:31:14.426Z,30.99
2023-04-10T17:33:42.827Z,30.96
2023-04-10T17:36:12.394Z,30.72
2023-04-10T17:38:40.974Z,30.86
2023-04-10T17:41:09.572Z,31.07
2023-04-10T17:43:37.366Z,30.99
2023-04-10T17:46:05.391Z,31.12
2023-04-10T17:48:34.731Z,31.27
2023-04-10T17:51:06.266Z,31.46
2023-04-10T17:53:34.142Z,31.28
2023-04-10T17:56:02.049Z,31.29
2023-04-10T17:58:30.008Z,31.54
2023-04-10T18:00:57.850Z,31.83
2023-04-10T18:03:26.129Z,32.54
2023-04-10T18:05:55.719Z,32.80
2023-04-10T18:08:23.566Z,32.15
2023-04-10T18:10:51.388Z,32.46
2023-04-10T18:13:19.589Z,32.88
2023-04-10T18:15:47.430Z,33.14
2023-04-10T18:18:15.422Z,33.25
2023-04-10T18:20:43.275Z,33.22
2023-04-10T18:23:12.551Z,33.29
2023-04-10T18:25:40.779Z,33.62
2023-04-10T18:28:15.290Z,33.44
2023-04-10T18:30:44.363Z,33.60
2023-04-10T18:33:12.719Z,34.15
2023-04-10T18:35:40.817Z,33.92
2023-04-10T18:38:08.702Z,34.37
2023-04-10T18:40:37.894Z,34.18
2023-04-10T18:43:05.753Z,34.65
2023-04-10T18:45:34.959Z,34.36
2023-04-10T18:48:02.884Z,34.44
2023-04-10T18:50:31.627Z,34.94
2023-04-10T18:52:59.429Z,34.85
2023-04-10T18:55:27.395Z,35.18
2023-04-10T18:57:56.586Z,34.96
2023-04-10T19:00:24.483Z,34.50
2023-04-10T19:02:52.468Z,35.01
2023-04-10T19:05:20.409Z,34.81
2023-04-10T19:08:00.864Z,34.87
2023-04-10T19:10:31.777Z,35.27
2023-04-10T19:13:00.945Z,35.39
2023-04-10T19:15:28.894Z,35.83
2023-04-10T19:17:56.955Z,35.58
2023-04-10T19:20:52.151Z,35.73
2023-04-10T19:23:13.161Z,35.67
2023-04-10T19:25:41.110Z,36.38
2023-04-10T19:28:10.435Z,36.34
2023-04-10T19:30:38.403Z,36.31
2023-04-10T19:33:06.361Z,36.97
2023-04-10T19:35:34.287Z,37.02
2023-04-10T19:38:02.166Z,37.23
2023-04-10T19:40:32.159Z,37.05
2023-04-10T19:43:01.901Z,37.59
2023-04-10T19:45:32.433Z,37.73
2023-04-10T19:48:00.685Z,37.29
2023-04-10T19:50:29.986Z,36.93
2023-04-10T19:52:58.116Z,37.06
2023-04-10T19:55:26.482Z,37.58
2023-04-10T19:57:54.668Z,37.62
2023-04-10T20:00:26.151Z,38.00
2023-04-10T20:02:55.788Z,38.38
2023-04-10T20:05:23.907Z,38.30
2023-04-10T20:07:51.726Z,38.47
2023-04-10T20:10:19.686Z,38.32
2023-04-10T20:12:47.483Z,38.36
2023-04-10T20:15:15.555Z,39.09
2023-04-10T22:21:44.475Z,39.91
2023-04-10T22:24:13.759Z,40.47
2023-04-10T22:26:45.856Z,39.96
2023-04-10T22:29:14.568Z,40.59
2023-04-10T22:31:42.404Z,40.47
2023-04-10T22:34:10.403Z,40.31
2023-04-10T22:36:38.457Z,40.55
2023-04-10T22:39:06.303Z,40.18
2023-04-10T22:41:35.574Z,40.27
2023-04-10T22:44:03.493Z,40.60
2023-04-10T22:46:31.380Z,40.62
2023-04-10T22:48:59.512Z,40.41
2023-04-10T22:51:27.798Z,40.63
2023-04-10T22:53:55.633Z,40.50
2023-04-10T22:56:26.545Z,40.88
2023-04-10T22:58:56.110Z,41.18
2023-04-10T23:01:24.160Z,40.96
2023-04-10T23:03:54.001Z,40.84
2023-04-10T23:06:21.935Z,40.40
2023-04-10T23:08:49.723Z,40.53
2023-04-10T23:11:17.542Z,40.74
2023-04-10T23:13:45.629Z,40.60
2023-04-10T23:16:14.928Z,41.10
2023-04-10T23:18:42.766Z,40.65
2023-04-10T23:21:10.606Z,40.98
2023-04-10T23:23:38.521Z,40.65
2023-04-10T23:26:06.937Z,40.65
2023-04-10T23:28:34.833Z,40.96
2023-04-10T23:31:02.663Z,41.06
2023-04-10T23:33:32.018Z,40.58
2023-04-10T23:36:00.235Z,40.93
2023-04-10T23:38:28.113Z,40.53
2023-04-10T23:40:56.047Z,40.61
2023-04-10T23:43:24.057Z,40.78
2023-04-10T23:45:51.877Z,40.50
2023-04-10T23:48:19.788Z,40.86
2023-04-10T23:50:49.057Z,40.70
2023-04-10T23:53:16.830Z,40.24
2023-04-10T23:55:44.815Z,40.31
2023-04-10T23:58:12.687Z,40.71
